Colonia Elia, Argentina
Current Conditions -  °F | °C
As of 10:00 PM on Monday 20 Oct 2014 (Local Time) from SUSO Reporting Station
Clear Clear  
Wind Chill: 63°   Ceiling: Unl
Heat Index: 63°   Visibility: 6mi
Dew Point: 54°   Wind: 6mph
Humidity: 72%   Direction: 120°ESE
Pressure: 30.09"   Gusts: NA
Location:  32.67°S, 58.31°W
Report Text: SUSO 210100Z 12005KT CAVOK 17/12 Q1019
Loading
Personal Weather Stations






























Interactive Weather Map
Tropical Storm Tracking
New forecast layout! Learn more

10-Day Weather Forecast

Advertisements
Track Severe Weather on mobile